Terminal Aerodrome Forecast
Issued by NWS

Home | Current Version | Previous Version | Text Only | Print | Product List | Glossary Off
Versions: 1 2 3 4 5 6 7 8 9 10 11 12 13 14 15 16 17 18 19 20

534
FTUS43 KFGF 260912 AAC
TAFBJI
TAF AMD
KBJI 260912Z 2609/2706 VRB03KT P6SM OVC008
     FM261500 VRB03KT P6SM OVC012
     FM261800 VRB04KT P6SM OVC020=

USA.gov is the U.S. government's official web portal to all federal, state and local government web resources and services.